Time;durP1;ratioP1;P1;durP2;ratioP2;P2;SDS_P1;SDS_P2;PMS_P1;PMS_P2;Temp;Humidity;BMP_temperature;BMP_pressure;BME280_temperature;BME280_humidity;BME280_pressure;Samples;Min_cycle;Max_cycle;Signal;HPM_P1;HPM_P2
2021/04/11 00:01:48;;;;;;;;;;;15.30;59.80;;;;;;4999370;28;19922;-59
2021/04/11 00:04:14;;;;;;;;;;;15.30;59.90;;;;;;5035118;28;19916;-59
2021/04/11 00:06:39;;;;;;;;;;;15.30;59.90;;;;;;5000783;28;20286;-59
2021/04/11 00:09:05;;;;;;;;;;;15.30;60.00;;;;;;4994440;28;19910;-60
2021/04/11 00:11:30;;;;;;;;;;;15.30;60.10;;;;;;5013014;28;20389;-59
2021/04/11 00:13:56;;;;;;;;;;;15.20;60.00;;;;;;4997571;28;19945;-61
2021/04/11 00:16:22;;;;;;;;;;;15.20;60.10;;;;;;5016238;28;19921;-60
2021/04/11 00:18:47;;;;;;;;;;;15.20;60.10;;;;;;5030493;28;19913;-59
2021/04/11 00:21:13;;;;;;;;;;;15.20;60.10;;;;;;5003426;28;19925;-60
2021/04/11 00:23:38;;;;;;;;;;;15.20;60.20;;;;;;5011944;28;20008;-61
2021/04/11 00:26:04;;;;;;;;;;;15.20;60.20;;;;;;5000397;28;19923;-57
2021/04/11 00:28:29;;;;;;;;;;;15.20;60.20;;;;;;5011114;28;20357;-60
2021/04/11 00:30:55;;;;;;;;;;;15.10;60.20;;;;;;5022175;28;20140;-58
2021/04/11 00:33:27;;;;;;;;;;;15.10;60.30;;;;;;5032705;28;19913;-59
2021/04/11 00:35:53;;;;;;;;;;;15.10;60.30;;;;;;5011777;28;19910;-60
2021/04/11 00:38:19;;;;;;;;;;;15.10;60.30;;;;;;4997394;28;19921;-60
2021/04/11 00:40:44;;;;;;;;;;;15.00;60.30;;;;;;5005005;28;19960;-59
2021/04/11 00:43:11;;;;;;;;;;;15.10;60.40;;;;;;5000080;28;20358;-60
2021/04/11 00:45:44;;;;;;;;;;;15.00;60.40;;;;;;5020694;28;19910;-59
2021/04/11 00:48:10;;;;;;;;;;;15.00;60.50;;;;;;5035180;28;20427;-57
2021/04/11 00:50:35;;;;;;;;;;;15.00;60.50;;;;;;5022888;28;20018;-60
2021/04/11 00:53:01;;;;;;;;;;;15.00;60.60;;;;;;5019380;28;19917;-56
2021/04/11 00:55:26;;;;;;;;;;;15.00;60.50;;;;;;5004234;28;20228;-58
2021/04/11 00:57:52;;;;;;;;;;;15.00;60.60;;;;;;5020555;28;20198;-59
2021/04/11 01:00:18;;;;;;;;;;;15.00;60.60;;;;;;5022025;28;20381;-59
2021/04/11 01:02:44;;;;;;;;;;;15.00;60.60;;;;;;4997519;28;19914;-59
2021/04/11 01:05:22;;;;;;;;;;;15.00;60.60;;;;;;5001850;28;20563;-58
2021/04/11 01:07:47;;;;;;;;;;;14.90;60.60;;;;;;5001267;28;20391;-57
2021/04/11 01:10:13;;;;;;;;;;;14.90;60.70;;;;;;5005108;28;19914;-59
2021/04/11 01:12:39;;;;;;;;;;;14.90;60.80;;;;;;5011288;28;19913;-59
2021/04/11 01:15:06;;;;;;;;;;;14.90;60.80;;;;;;5004449;28;20296;-58
2021/04/11 01:17:31;;;;;;;;;;;14.90;60.80;;;;;;5020523;28;20344;-60
2021/04/11 01:19:57;;;;;;;;;;;14.90;60.80;;;;;;5015896;28;20016;-60
2021/04/11 01:22:26;;;;;;;;;;;14.80;60.90;;;;;;5002746;28;19971;-59
2021/04/11 01:24:55;;;;;;;;;;;14.80;60.90;;;;;;4993047;28;20378;-57
2021/04/11 01:27:21;;;;;;;;;;;14.80;61.00;;;;;;5033434;28;20379;-59
2021/04/11 01:29:47;;;;;;;;;;;14.80;61.00;;;;;;5013612;28;19924;-61
2021/04/11 01:32:12;;;;;;;;;;;14.80;61.00;;;;;;5015986;28;20004;-60
2021/04/11 01:34:38;;;;;;;;;;;14.80;61.00;;;;;;5009582;28;20008;-58
2021/04/11 01:37:04;;;;;;;;;;;14.80;61.80;;;;;;5034396;28;19967;-58
2021/04/11 01:39:30;;;;;;;;;;;14.80;61.10;;;;;;5000979;28;19921;-60
2021/04/11 01:41:56;;;;;;;;;;;14.70;61.00;;;;;;5024187;28;20660;-59
2021/04/11 01:44:23;;;;;;;;;;;14.70;61.10;;;;;;5012504;28;19949;-61
2021/04/11 01:46:48;;;;;;;;;;;14.70;61.20;;;;;;5037132;28;20319;-59
2021/04/11 01:49:14;;;;;;;;;;;14.70;61.20;;;;;;5009547;28;19924;-61
2021/04/11 01:51:42;;;;;;;;;;;14.70;61.20;;;;;;5043434;28;19916;-59
2021/04/11 01:54:08;;;;;;;;;;;14.70;61.30;;;;;;5010411;28;19969;-61
2021/04/11 01:56:34;;;;;;;;;;;14.70;61.30;;;;;;5011087;28;19919;-57
2021/04/11 01:58:59;;;;;;;;;;;14.60;61.30;;;;;;5013344;28;19913;-59
2021/04/11 02:01:28;;;;;;;;;;;14.60;61.40;;;;;;5001886;28;20336;-59
2021/04/11 02:03:58;;;;;;;;;;;14.60;61.40;;;;;;5005281;28;19909;-61
2021/04/11 02:06:24;;;;;;;;;;;14.60;61.50;;;;;;5018100;28;19916;-61
2021/04/11 02:08:50;;;;;;;;;;;14.60;61.40;;;;;;5034744;28;19909;-61
2021/04/11 02:11:16;;;;;;;;;;;14.60;61.50;;;;;;5022697;28;20000;-60
2021/04/11 02:13:41;;;;;;;;;;;14.60;61.60;;;;;;5030238;28;20429;-61
2021/04/11 02:16:08;;;;;;;;;;;14.50;61.50;;;;;;5041482;28;20321;-60
2021/04/11 02:18:34;;;;;;;;;;;14.60;61.60;;;;;;5012835;28;19917;-57
2021/04/11 02:20:59;;;;;;;;;;;14.50;61.60;;;;;;5021339;28;19919;-57
2021/04/11 02:23:25;;;;;;;;;;;14.50;61.60;;;;;;5009024;28;19922;-60
2021/04/11 02:25:51;;;;;;;;;;;14.50;61.70;;;;;;5010595;28;19914;-61
2021/04/11 02:28:17;;;;;;;;;;;14.50;61.70;;;;;;5009754;28;19918;-57
2021/04/11 02:30:47;;;;;;;;;;;14.50;61.70;;;;;;5003658;28;19917;-61
2021/04/11 02:33:12;;;;;;;;;;;14.50;61.70;;;;;;4996713;28;19921;-61
2021/04/11 02:35:38;;;;;;;;;;;14.40;61.80;;;;;;5041993;28;19917;-58
2021/04/11 02:38:03;;;;;;;;;;;14.40;61.80;;;;;;5025394;28;19979;-57
2021/04/11 02:40:39;;;;;;;;;;;14.40;61.80;;;;;;5015200;28;19921;-60
2021/04/11 02:43:05;;;;;;;;;;;14.40;61.80;;;;;;5015841;28;20005;-59
2021/04/11 02:45:32;;;;;;;;;;;14.40;61.90;;;;;;5020840;28;20876;-58
2021/04/11 02:47:57;;;;;;;;;;;14.40;61.90;;;;;;5014595;28;19964;-60
2021/04/11 02:50:23;;;;;;;;;;;14.40;62.00;;;;;;5030114;28;19909;-59
2021/04/11 02:52:52;;;;;;;;;;;14.40;61.90;;;;;;5026311;28;19917;-61
2021/04/11 02:55:17;;;;;;;;;;;14.40;62.00;;;;;;5029146;28;19939;-58
2021/04/11 02:57:43;;;;;;;;;;;14.30;62.00;;;;;;5015448;28;19914;-60
2021/04/11 03:00:09;;;;;;;;;;;14.30;62.10;;;;;;5038956;28;19921;-61
2021/04/11 03:02:34;;;;;;;;;;;14.30;62.10;;;;;;5011931;28;19918;-58
2021/04/11 03:05:00;;;;;;;;;;;14.40;62.20;;;;;;5015555;28;20274;-60
2021/04/11 03:07:26;;;;;;;;;;;14.30;62.10;;;;;;4997492;28;19914;-59
2021/04/11 03:09:58;;;;;;;;;;;14.30;62.10;;;;;;5010378;28;20293;-60
2021/04/11 03:12:24;;;;;;;;;;;14.30;62.20;;;;;;5018368;28;19964;-61
2021/04/11 03:14:49;;;;;;;;;;;14.30;62.20;;;;;;5016122;28;20247;-60
2021/04/11 03:17:16;;;;;;;;;;;14.20;62.30;;;;;;5011983;28;19918;-59
2021/04/11 03:19:43;;;;;;;;;;;14.20;62.20;;;;;;5009650;28;19980;-58
2021/04/11 03:22:09;;;;;;;;;;;14.20;62.30;;;;;;5028302;28;20008;-61
2021/04/11 03:24:34;;;;;;;;;;;14.20;62.30;;;;;;5000765;28;20064;-61
2021/04/11 03:27:07;;;;;;;;;;;14.20;62.40;;;;;;4997363;28;20124;-58
2021/04/11 03:29:37;;;;;;;;;;;14.20;62.30;;;;;;5015841;28;19939;-61
2021/04/11 03:32:11;;;;;;;;;;;14.20;62.30;;;;;;5027926;28;20393;-58
2021/04/11 03:34:36;;;;;;;;;;;14.20;62.40;;;;;;4997633;28;20356;-58
2021/04/11 03:37:02;;;;;;;;;;;13.90;62.30;;;;;;5015394;28;19921;-62
2021/04/11 03:39:28;;;;;;;;;;;14.20;62.50;;;;;;5010163;28;19968;-59
2021/04/11 03:41:53;;;;;;;;;;;14.10;62.40;;;;;;4999067;28;19913;-60
2021/04/11 03:44:20;;;;;;;;;;;14.10;62.40;;;;;;5009642;28;20419;-61
2021/04/11 03:46:53;;;;;;;;;;;14.10;62.40;;;;;;5024552;28;19913;-60
2021/04/11 03:49:21;;;;;;;;;;;14.10;62.60;;;;;;5013347;28;19922;-58
2021/04/11 03:51:47;;;;;;;;;;;14.10;62.60;;;;;;5017670;28;19914;-59
2021/04/11 03:54:17;;;;;;;;;;;14.10;62.50;;;;;;5012445;28;19925;-59
2021/04/11 03:56:46;;;;;;;;;;;14.10;62.60;;;;;;5013177;28;20284;-57
2021/04/11 03:59:17;;;;;;;;;;;14.10;62.60;;;;;;5018209;28;19914;-60
2021/04/11 04:01:44;;;;;;;;;;;14.10;62.70;;;;;;5018499;28;20325;-56
2021/04/11 04:04:16;;;;;;;;;;;14.00;62.60;;;;;;5012926;28;19976;-61
2021/04/11 04:06:54;;;;;;;;;;;14.00;62.60;;;;;;4997878;28;19920;-58
2021/04/11 04:09:20;;;;;;;;;;;14.00;62.60;;;;;;5004505;28;19997;-59
2021/04/11 04:11:48;;;;;;;;;;;14.00;62.70;;;;;;5005403;28;20439;-59
2021/04/11 04:14:16;;;;;;;;;;;14.00;62.80;;;;;;5009390;28;20114;-61
2021/04/11 04:17:06;;;;;;;;;;;14.00;62.80;;;;;;5031099;28;20008;-58
2021/04/11 04:19:42;;;;;;;;;;;14.00;62.90;;;;;;5024794;28;19909;-60
2021/04/11 04:22:12;;;;;;;;;;;13.90;62.80;;;;;;5011512;28;20277;-60
2021/04/11 04:24:50;;;;;;;;;;;13.90;62.90;;;;;;5011291;28;19913;-59
2021/04/11 04:27:28;;;;;;;;;;;13.90;62.90;;;;;;5050987;28;19917;-57
2021/04/11 04:29:53;;;;;;;;;;;13.90;63.00;;;;;;5022441;28;19917;-58
2021/04/11 04:32:30;;;;;;;;;;;13.90;63.00;;;;;;5017504;28;19951;-58
2021/04/11 04:35:02;;;;;;;;;;;13.90;63.10;;;;;;5034293;28;19913;-61
2021/04/11 04:37:28;;;;;;;;;;;13.90;63.00;;;;;;5009923;28;19944;-61
2021/04/11 04:39:57;;;;;;;;;;;13.90;63.10;;;;;;5009231;28;19922;-57
2021/04/11 04:42:26;;;;;;;;;;;13.80;63.10;;;;;;5040672;28;19921;-60
2021/04/11 04:44:53;;;;;;;;;;;13.80;63.10;;;;;;5022239;28;19913;-61
2021/04/11 04:47:38;;;;;;;;;;;13.80;63.10;;;;;;5035626;28;20124;-57
2021/04/11 04:50:22;;;;;;;;;;;13.80;63.20;;;;;;5017650;28;19916;-57
2021/04/11 04:52:57;;;;;;;;;;;13.80;63.30;;;;;;5025892;28;19913;-58
2021/04/11 04:55:24;;;;;;;;;;;13.80;63.30;;;;;;5024436;28;19913;-58
2021/04/11 04:58:00;;;;;;;;;;;13.70;63.30;;;;;;5026140;28;20030;-60
2021/04/11 05:00:30;;;;;;;;;;;13.70;63.40;;;;;;5020514;28;19920;-56
2021/04/11 05:02:55;;;;;;;;;;;13.70;63.40;;;;;;5017760;28;19909;-60
2021/04/11 05:05:21;;;;;;;;;;;13.70;63.40;;;;;;5004316;28;19914;-61
2021/04/11 05:07:47;;;;;;;;;;;13.70;63.50;;;;;;5045502;28;20283;-57
2021/04/11 05:10:18;;;;;;;;;;;13.70;63.40;;;;;;5021261;28;20358;-57
2021/04/11 05:13:13;;;;;;;;;;;13.70;63.40;;;;;;5028843;28;19909;-62
2021/04/11 05:15:39;;;;;;;;;;;13.70;63.50;;;;;;5000041;28;19929;-62
2021/04/11 05:18:06;;;;;;;;;;;13.70;63.60;;;;;;5021805;28;19936;-58
2021/04/11 05:20:33;;;;;;;;;;;13.70;63.60;;;;;;5005389;28;20362;-58
2021/04/11 05:23:00;;;;;;;;;;;13.60;63.60;;;;;;5007653;28;19924;-59
2021/04/11 05:25:32;;;;;;;;;;;13.60;63.60;;;;;;5036280;28;19972;-61
2021/04/11 05:28:03;;;;;;;;;;;13.60;63.70;;;;;;5003193;28;20401;-58
2021/04/11 05:30:30;;;;;;;;;;;13.60;63.70;;;;;;5034388;28;19931;-59
2021/04/11 05:32:55;;;;;;;;;;;13.60;63.80;;;;;;5013041;28;19980;-59
2021/04/11 05:35:21;;;;;;;;;;;13.60;63.80;;;;;;5025232;28;19913;-60
2021/04/11 05:37:52;;;;;;;;;;;13.50;63.70;;;;;;5003844;28;19932;-58
2021/04/11 05:40:38;;;;;;;;;;;13.50;63.70;;;;;;5009969;28;19921;-59
2021/04/11 05:43:07;;;;;;;;;;;13.60;63.90;;;;;;5013821;28;19914;-60
2021/04/11 05:45:36;;;;;;;;;;;13.60;63.80;;;;;;5010426;28;19985;-58
2021/04/11 05:48:08;;;;;;;;;;;13.50;63.80;;;;;;5016864;28;19921;-59
2021/04/11 05:50:56;;;;;;;;;;;13.50;63.80;;;;;;5017610;28;19910;-60
2021/04/11 05:53:22;;;;;;;;;;;13.50;63.90;;;;;;5018661;28;19959;-59
2021/04/11 05:56:08;;;;;;;;;;;13.50;63.90;;;;;;5031610;28;19921;-60
2021/04/11 05:58:56;;;;;;;;;;;13.50;63.90;;;;;;5021980;28;19919;-61
2021/04/11 06:01:26;;;;;;;;;;;13.50;63.90;;;;;;5007003;28;19917;-60
2021/04/11 06:03:57;;;;;;;;;;;13.50;63.90;;;;;;5033422;28;20373;-60
2021/04/11 06:06:26;;;;;;;;;;;13.50;63.90;;;;;;5018098;28;20328;-58
2021/04/11 06:08:54;;;;;;;;;;;13.50;63.90;;;;;;5018170;28;20347;-60
2021/04/11 06:11:34;;;;;;;;;;;13.50;64.00;;;;;;5046486;28;19959;-62
2021/04/11 06:14:01;;;;;;;;;;;13.50;64.00;;;;;;5037417;28;19910;-58
2021/04/11 06:16:27;;;;;;;;;;;13.50;64.10;;;;;;5029987;28;19913;-60
2021/04/11 06:18:53;;;;;;;;;;;13.50;64.00;;;;;;5025270;28;19910;-58
2021/04/11 06:21:23;;;;;;;;;;;13.50;64.10;;;;;;5031574;28;20392;-58
2021/04/11 06:23:51;;;;;;;;;;;13.50;64.00;;;;;;5025032;28;20276;-57
2021/04/11 06:26:19;;;;;;;;;;;13.50;64.10;;;;;;5036534;28;20466;-59
2021/04/11 06:28:49;;;;;;;;;;;13.50;64.10;;;;;;5021156;28;19909;-60
2021/04/11 06:31:24;;;;;;;;;;;13.50;64.00;;;;;;5039452;28;19959;-59
2021/04/11 06:34:16;;;;;;;;;;;13.50;64.00;;;;;;5024430;28;19909;-58
2021/04/11 06:36:42;;;;;;;;;;;13.50;64.10;;;;;;5005885;28;19932;-57
2021/04/11 06:39:09;;;;;;;;;;;13.50;64.10;;;;;;5019770;28;19921;-60
2021/04/11 06:41:53;;;;;;;;;;;13.50;64.10;;;;;;5002305;28;20073;-58
2021/04/11 06:44:28;;;;;;;;;;;13.50;64.10;;;;;;5010863;28;20384;-60
2021/04/11 06:47:00;;;;;;;;;;;13.50;64.20;;;;;;5021080;28;19917;-60
2021/04/11 06:49:30;;;;;;;;;;;13.40;64.10;;;;;;5016034;28;19909;-60
2021/04/11 06:52:04;;;;;;;;;;;13.50;64.20;;;;;;5003491;28;19910;-59
2021/04/11 06:54:31;;;;;;;;;;;13.50;64.20;;;;;;5016581;28;19917;-61
2021/04/11 06:57:06;;;;;;;;;;;13.50;64.10;;;;;;5021576;28;19963;-58
2021/04/11 06:59:50;;;;;;;;;;;13.50;64.10;;;;;;5018312;28;19958;-59
2021/04/11 07:02:35;;;;;;;;;;;13.50;64.10;;;;;;5002279;28;19920;-60
2021/04/11 07:05:20;;;;;;;;;;;13.50;64.20;;;;;;5005032;28;19940;-57
2021/04/11 07:08:11;;;;;;;;;;;13.50;64.20;;;;;;5001811;28;20012;-56
2021/04/11 07:10:49;;;;;;;;;;;13.50;64.20;;;;;;5026179;28;19913;-61
2021/04/11 07:13:34;;;;;;;;;;;13.30;64.10;;;;;;5019776;28;20384;-61
2021/04/11 07:16:19;;;;;;;;;;;13.50;64.40;;;;;;5005990;28;20336;-58
2021/04/11 07:18:54;;;;;;;;;;;13.50;64.40;;;;;;5016713;28;20289;-60
2021/04/11 07:21:25;;;;;;;;;;;13.50;64.50;;;;;;5012929;28;19971;-60
2021/04/11 07:24:00;;;;;;;;;;;13.50;64.50;;;;;;5041266;28;20295;-56
2021/04/11 07:26:44;;;;;;;;;;;13.50;64.60;;;;;;5018489;28;19913;-59
2021/04/11 07:29:14;;;;;;;;;;;13.50;64.70;;;;;;5008133;28;20013;-61
2021/04/11 07:31:40;;;;;;;;;;;13.50;64.70;;;;;;5012721;28;19913;-58
2021/04/11 07:34:13;;;;;;;;;;;13.50;64.80;;;;;;5005203;28;19914;-62
2021/04/11 07:36:58;;;;;;;;;;;13.50;64.70;;;;;;5029167;28;19913;-60
2021/04/11 07:39:44;;;;;;;;;;;13.50;64.80;;;;;;5010200;28;19928;-58
2021/04/11 07:42:29;;;;;;;;;;;13.50;64.80;;;;;;5026577;28;20291;-56
2021/04/11 07:45:14;;;;;;;;;;;13.50;64.80;;;;;;5015573;28;19960;-61
2021/04/11 07:47:47;;;;;;;;;;;13.50;65.50;;;;;;5038261;28;19967;-57
2021/04/11 07:50:32;;;;;;;;;;;13.60;64.80;;;;;;5026947;28;20370;-57
2021/04/11 07:53:01;;;;;;;;;;;13.60;64.70;;;;;;4997508;28;20483;-61
2021/04/11 07:55:29;;;;;;;;;;;13.60;64.70;;;;;;5012824;28;19909;-59
2021/04/11 07:57:57;;;;;;;;;;;13.60;64.50;;;;;;5003533;28;19918;-58
2021/04/11 08:00:27;;;;;;;;;;;13.60;64.50;;;;;;5043209;28;19974;-58
2021/04/11 08:02:52;;;;;;;;;;;13.60;64.40;;;;;;5023659;28;19969;-61
2021/04/11 08:05:17;;;;;;;;;;;13.70;64.40;;;;;;5013987;28;20396;-58
2021/04/11 08:07:49;;;;;;;;;;;13.70;64.30;;;;;;5013194;28;19977;-57
2021/04/11 08:10:22;;;;;;;;;;;13.70;64.40;;;;;;5016877;28;19909;-59
2021/04/11 08:13:00;;;;;;;;;;;13.70;64.30;;;;;;5030328;28;20361;-58
2021/04/11 08:15:30;;;;;;;;;;;13.70;64.20;;;;;;5035795;28;20351;-60
2021/04/11 08:18:14;;;;;;;;;;;13.80;64.20;;;;;;5030748;28;20387;-61
2021/04/11 08:20:52;;;;;;;;;;;13.80;64.10;;;;;;5014956;28;20372;-61
2021/04/11 08:23:23;;;;;;;;;;;13.80;64.00;;;;;;5018095;28;19918;-60
2021/04/11 08:25:52;;;;;;;;;;;13.80;64.00;;;;;;5017925;28;19918;-59
2021/04/11 08:28:18;;;;;;;;;;;13.90;64.10;;;;;;5023542;28;19913;-59
2021/04/11 08:31:06;;;;;;;;;;;13.90;64.10;;;;;;5004539;28;19921;-60
2021/04/11 08:33:51;;;;;;;;;;;13.90;64.10;;;;;;5002602;28;19959;-60
2021/04/11 08:36:36;;;;;;;;;;;14.00;64.00;;;;;;5011548;28;19920;-62
2021/04/11 08:39:21;;;;;;;;;;;14.00;64.00;;;;;;5008528;28;19968;-62
2021/04/11 08:42:05;;;;;;;;;;;14.00;63.90;;;;;;5007785;28;19924;-61
2021/04/11 08:44:33;;;;;;;;;;;14.00;63.90;;;;;;5004798;28;20303;-61
2021/04/11 08:47:00;;;;;;;;;;;14.00;63.80;;;;;;5005207;28;20028;-57
2021/04/11 08:49:31;;;;;;;;;;;14.30;63.90;;;;;;5019397;28;19917;-58
2021/04/11 08:52:10;;;;;;;;;;;14.10;63.70;;;;;;5022398;28;21282;-60
2021/04/11 08:54:48;;;;;;;;;;;14.10;63.70;;;;;;5015566;28;19948;-59
2021/04/11 08:57:20;;;;;;;;;;;14.10;63.60;;;;;;5007926;28;19921;-58
2021/04/11 08:59:55;;;;;;;;;;;14.20;63.70;;;;;;5005153;28;19913;-56
2021/04/11 09:02:24;;;;;;;;;;;14.20;63.50;;;;;;5017787;28;19949;-58
2021/04/11 09:05:05;;;;;;;;;;;14.30;63.60;;;;;;5019401;28;20329;-60
2021/04/11 09:07:43;;;;;;;;;;;14.30;63.60;;;;;;5047730;28;19917;-60
2021/04/11 09:10:14;;;;;;;;;;;14.30;63.50;;;;;;5030027;28;19913;-59
2021/04/11 09:12:46;;;;;;;;;;;14.40;63.50;;;;;;5010570;28;19932;-58
2021/04/11 09:15:17;;;;;;;;;;;14.40;63.50;;;;;;5016677;28;19916;-59
2021/04/11 09:17:50;;;;;;;;;;;14.40;63.40;;;;;;5027573;28;20476;-59
2021/04/11 09:20:17;;;;;;;;;;;14.50;63.40;;;;;;5023170;28;19964;-61
2021/04/11 09:22:48;;;;;;;;;;;14.50;63.30;;;;;;5033537;28;20016;-60
2021/04/11 09:25:20;;;;;;;;;;;14.50;63.20;;;;;;5036478;28;19917;-59
2021/04/11 09:27:51;;;;;;;;;;;14.60;63.30;;;;;;5032497;28;19945;-58
2021/04/11 09:30:29;;;;;;;;;;;14.60;63.20;;;;;;5044045;28;19917;-62
2021/04/11 09:33:11;;;;;;;;;;;14.60;63.00;;;;;;5036473;28;20777;-58
2021/04/11 09:35:55;;;;;;;;;;;14.70;63.00;;;;;;5029393;28;20319;-60
2021/04/11 09:38:24;;;;;;;;;;;14.70;62.80;;;;;;5003610;28;20020;-60
2021/04/11 09:41:04;;;;;;;;;;;14.80;62.70;;;;;;5018453;28;19971;-61
2021/04/11 09:43:48;;;;;;;;;;;14.80;62.70;;;;;;5021880;28;19913;-60
2021/04/11 09:46:33;;;;;;;;;;;14.90;62.70;;;;;;5019466;28;20365;-57
2021/04/11 09:48:59;;;;;;;;;;;14.90;62.50;;;;;;5033232;28;20018;-59
2021/04/11 09:51:43;;;;;;;;;;;15.00;62.50;;;;;;5040421;28;20231;-57
2021/04/11 09:54:11;;;;;;;;;;;15.00;62.40;;;;;;5033374;28;20289;-61
2021/04/11 09:56:44;;;;;;;;;;;15.00;62.20;;;;;;5038603;28;19999;-61
2021/04/11 09:59:13;;;;;;;;;;;15.10;62.20;;;;;;5029275;28;20026;-59
2021/04/11 10:01:57;;;;;;;;;;;15.10;62.10;;;;;;5012331;28;19936;-58
2021/04/11 10:04:36;;;;;;;;;;;15.10;62.20;;;;;;5018047;28;19990;-57
2021/04/11 10:07:25;;;;;;;;;;;15.20;62.20;;;;;;5018080;28;19910;-61
2021/04/11 10:10:26;;;;;;;;;;;15.20;62.10;;;;;;4998603;28;19925;-62
2021/04/11 10:13:09;;;;;;;;;;;15.20;62.70;;;;;;4949269;28;20370;-59
2021/04/11 10:15:38;;;;;;;;;;;15.20;62.00;;;;;;5037154;28;19912;-61
2021/04/11 10:18:23;;;;;;;;;;;15.20;62.00;;;;;;5024589;28;19917;-58
2021/04/11 10:20:48;;;;;;;;;;;15.30;62.00;;;;;;5009300;28;20497;-61
2021/04/11 10:23:20;;;;;;;;;;;15.30;62.10;;;;;;5027223;28;20003;-61
2021/04/11 10:25:47;;;;;;;;;;;15.30;62.00;;;;;;5028918;28;19916;-59
2021/04/11 10:28:15;;;;;;;;;;;15.40;61.90;;;;;;5006527;28;20008;-58
2021/04/11 10:30:41;;;;;;;;;;;15.40;61.80;;;;;;5022549;28;19909;-59
2021/04/11 10:33:27;;;;;;;;;;;15.50;61.90;;;;;;5007031;28;20048;-57
2021/04/11 10:35:56;;;;;;;;;;;15.50;61.80;;;;;;5012826;28;19967;-59
2021/04/11 10:38:31;;;;;;;;;;;15.50;61.70;;;;;;5010124;28;19933;-59
2021/04/11 10:41:19;;;;;;;;;;;15.60;61.60;;;;;;4998083;28;19917;-61
2021/04/11 10:43:51;;;;;;;;;;;15.60;61.60;;;;;;5010740;28;19976;-59
2021/04/11 10:46:29;;;;;;;;;;;15.60;61.50;;;;;;5001929;28;19914;-59
2021/04/11 10:49:02;;;;;;;;;;;15.70;61.70;;;;;;5017742;28;19910;-57
2021/04/11 10:51:37;;;;;;;;;;;15.70;61.50;;;;;;5018785;28;19925;-57
2021/04/11 10:54:22;;;;;;;;;;;15.80;61.50;;;;;;5013951;28;19917;-59
2021/04/11 10:57:05;;;;;;;;;;;15.80;61.50;;;;;;5006648;28;19960;-59
2021/04/11 10:59:40;;;;;;;;;;;15.80;61.50;;;;;;4994371;28;19964;-58
2021/04/11 11:02:08;;;;;;;;;;;15.90;61.60;;;;;;5040392;28;20070;-59
2021/04/11 11:04:52;;;;;;;;;;;15.90;61.40;;;;;;5030842;28;19909;-58
2021/04/11 11:07:36;;;;;;;;;;;15.90;61.40;;;;;;5004267;28;19921;-57
2021/04/11 11:10:27;;;;;;;;;;;15.90;61.20;;;;;;5004440;28;19917;-60
2021/04/11 11:12:58;;;;;;;;;;;16.00;61.30;;;;;;5011522;28;19996;-59
2021/04/11 11:15:42;;;;;;;;;;;16.00;61.20;;;;;;5001528;28;20407;-60
2021/04/11 11:18:20;;;;;;;;;;;16.00;61.00;;;;;;5031109;28;19979;-59
2021/04/11 11:20:57;;;;;;;;;;;16.10;60.90;;;;;;4999668;28;20262;-61
2021/04/11 11:23:41;;;;;;;;;;;16.10;60.90;;;;;;5010652;28;19996;-59
2021/04/11 11:26:15;;;;;;;;;;;16.10;60.90;;;;;;5007861;28;19913;-60
2021/04/11 11:28:48;;;;;;;;;;;16.20;60.80;;;;;;4999329;28;20302;-58
2021/04/11 11:31:32;;;;;;;;;;;16.30;60.60;;;;;;5028157;28;20284;-57
2021/04/11 11:33:57;;;;;;;;;;;16.30;60.40;;;;;;5001714;28;20065;-62
2021/04/11 11:36:26;;;;;;;;;;;16.40;60.40;;;;;;5003638;28;19914;-58
2021/04/11 11:38:58;;;;;;;;;;;16.40;60.20;;;;;;5012751;28;19926;-60
2021/04/11 11:41:42;;;;;;;;;;;16.40;60.20;;;;;;5001276;28;19917;-58
2021/04/11 11:44:26;;;;;;;;;;;16.50;60.10;;;;;;5008111;28;19952;-57
2021/04/11 11:46:58;;;;;;;;;;;16.60;60.00;;;;;;4999372;28;19913;-62
2021/04/11 11:49:23;;;;;;;;;;;16.60;59.80;;;;;;5001343;28;19924;-61
2021/04/11 11:52:01;;;;;;;;;;;16.70;59.70;;;;;;5001570;28;19913;-59
2021/04/11 11:54:26;;;;;;;;;;;16.80;59.70;;;;;;5009283;28;19921;-58
2021/04/11 11:56:52;;;;;;;;;;;16.80;59.60;;;;;;5012724;28;19943;-62
2021/04/11 11:59:26;;;;;;;;;;;16.90;59.60;;;;;;5003656;28;19913;-61
2021/04/11 12:01:53;;;;;;;;;;;17.00;59.50;;;;;;5014211;28;20307;-60
2021/04/11 12:04:45;;;;;;;;;;;17.00;59.40;;;;;;5026471;28;19914;-60
2021/04/11 12:07:19;;;;;;;;;;;17.10;59.30;;;;;;4998943;28;19914;-57
2021/04/11 12:09:45;;;;;;;;;;;17.20;59.10;;;;;;5034306;28;20012;-58
2021/04/11 12:12:12;;;;;;;;;;;17.30;59.00;;;;;;4994025;28;20009;-58
2021/04/11 12:14:53;;;;;;;;;;;17.30;58.90;;;;;;5020433;28;19913;-58
2021/04/11 12:17:37;;;;;;;;;;;17.40;58.80;;;;;;5028780;28;19936;-59
2021/04/11 12:20:07;;;;;;;;;;;17.50;58.70;;;;;;4991336;28;19910;-62
2021/04/11 12:22:41;;;;;;;;;;;17.50;58.60;;;;;;5004972;28;19913;-59
2021/04/11 12:25:12;;;;;;;;;;;17.60;58.40;;;;;;5007148;28;19910;-61
2021/04/11 12:27:39;;;;;;;;;;;17.70;58.30;;;;;;4998822;28;20357;-60
2021/04/11 12:30:28;;;;;;;;;;;17.80;58.30;;;;;;5025770;28;19917;-61
2021/04/11 12:33:02;;;;;;;;;;;17.80;58.70;;;;;;5018228;28;19971;-63
2021/04/11 12:35:41;;;;;;;;;;;17.90;58.20;;;;;;5005324;28;19921;-58
2021/04/11 12:38:27;;;;;;;;;;;18.00;58.00;;;;;;5011744;28;20336;-58
2021/04/11 12:41:01;;;;;;;;;;;18.10;57.90;;;;;;5026749;28;20077;-59
2021/04/11 12:43:39;;;;;;;;;;;18.20;57.80;;;;;;5002416;28;19945;-58
2021/04/11 12:46:08;;;;;;;;;;;18.20;57.70;;;;;;5017259;28;20008;-61
2021/04/11 12:48:38;;;;;;;;;;;18.30;57.70;;;;;;5017147;28;19949;-57
2021/04/11 12:51:04;;;;;;;;;;;18.40;57.70;;;;;;5014600;28;20282;-60
2021/04/11 12:53:29;;;;;;;;;;;18.40;57.30;;;;;;4998005;28;19920;-57
2021/04/11 12:55:59;;;;;;;;;;;18.50;58.10;;;;;;4999435;28;19917;-58
2021/04/11 12:58:29;;;;;;;;;;;18.50;57.40;;;;;;5015694;28;19917;-60
2021/04/11 13:01:03;;;;;;;;;;;18.50;57.20;;;;;;5039576;28;20397;-57
2021/04/11 13:03:36;;;;;;;;;;;18.60;57.20;;;;;;4996246;28;19914;-57
2021/04/11 13:06:15;;;;;;;;;;;18.60;57.20;;;;;;5023757;28;19968;-57
2021/04/11 13:08:50;;;;;;;;;;;18.60;57.00;;;;;;5024115;28;19914;-58
2021/04/11 13:11:15;;;;;;;;;;;18.70;56.90;;;;;;5006366;28;19957;-60
2021/04/11 13:13:46;;;;;;;;;;;18.70;56.90;;;;;;4993205;28;19944;-56
2021/04/11 13:16:14;;;;;;;;;;;18.80;56.90;;;;;;5012132;28;19956;-61
2021/04/11 13:18:40;;;;;;;;;;;18.80;56.80;;;;;;5016592;28;20008;-57
2021/04/11 13:21:05;;;;;;;;;;;18.90;56.90;;;;;;4996905;28;20327;-58
2021/04/11 13:23:32;;;;;;;;;;;19.00;56.90;;;;;;4993460;28;20340;-60
2021/04/11 13:26:00;;;;;;;;;;;19.00;56.80;;;;;;5038431;28;20027;-57
2021/04/11 13:28:28;;;;;;;;;;;19.10;56.80;;;;;;5016353;28;19924;-58
2021/04/11 13:30:59;;;;;;;;;;;19.20;56.60;;;;;;5013173;28;20010;-61
2021/04/11 13:33:26;;;;;;;;;;;19.30;56.70;;;;;;4992552;28;19914;-59
2021/04/11 13:35:54;;;;;;;;;;;19.30;56.20;;;;;;5026656;28;19910;-58
2021/04/11 13:38:28;;;;;;;;;;;19.40;55.80;;;;;;4996910;28;19926;-56
2021/04/11 13:41:02;;;;;;;;;;;19.50;55.70;;;;;;5006808;28;19914;-62
2021/04/11 13:43:31;;;;;;;;;;;19.50;55.80;;;;;;5012981;28;19917;-57
2021/04/11 13:46:02;;;;;;;;;;;19.50;55.40;;;;;;5007039;28;20475;-58
2021/04/11 13:48:36;;;;;;;;;;;19.60;55.80;;;;;;5027170;28;20279;-57
2021/04/11 13:51:18;;;;;;;;;;;19.60;55.40;;;;;;5014350;28;19956;-58
2021/04/11 13:53:47;;;;;;;;;;;19.70;55.00;;;;;;5012739;28;19918;-58
2021/04/11 13:56:21;;;;;;;;;;;19.70;55.20;;;;;;4993419;28;19910;-58
2021/04/11 13:58:51;;;;;;;;;;;19.80;55.00;;;;;;5039023;28;19917;-59
2021/04/11 14:01:38;;;;;;;;;;;19.80;55.20;;;;;;5016210;28;19977;-56
2021/04/11 14:04:04;;;;;;;;;;;19.80;55.00;;;;;;5008773;28;19910;-61
2021/04/11 14:06:30;;;;;;;;;;;19.90;55.10;;;;;;5015591;28;19962;-59
2021/04/11 14:08:56;;;;;;;;;;;20.00;55.20;;;;;;5017663;28;20413;-59
2021/04/11 14:11:24;;;;;;;;;;;20.00;55.10;;;;;;5001754;28;20000;-59
2021/04/11 14:14:01;;;;;;;;;;;20.10;54.70;;;;;;5030471;28;19914;-58
2021/04/11 14:16:53;;;;;;;;;;;20.20;54.40;;;;;;5002640;28;19913;-61
2021/04/11 14:19:23;;;;;;;;;;;20.20;53.80;;;;;;5010452;28;20479;-56
2021/04/11 14:21:49;;;;;;;;;;;20.30;53.60;;;;;;5007106;28;19964;-58
2021/04/11 14:24:17;;;;;;;;;;;20.40;53.70;;;;;;5035117;28;20423;-61
2021/04/11 14:26:52;;;;;;;;;;;20.50;53.60;;;;;;5020693;28;20015;-60
2021/04/11 14:29:23;;;;;;;;;;;20.60;53.60;;;;;;5026214;28;19924;-58
2021/04/11 14:32:03;;;;;;;;;;;20.60;53.40;;;;;;5034863;28;19983;-57
2021/04/11 14:34:30;;;;;;;;;;;20.60;53.30;;;;;;5032275;28;20034;-61
2021/04/11 14:37:14;;;;;;;;;;;20.60;53.40;;;;;;5029239;28;20028;-57
2021/04/11 14:39:40;;;;;;;;;;;20.60;53.70;;;;;;5012067;28;20008;-59
2021/04/11 14:42:12;;;;;;;;;;;20.60;53.60;;;;;;5016013;28;20281;-58
2021/04/11 14:44:41;;;;;;;;;;;20.60;53.80;;;;;;5013403;28;19918;-59